Flight Track Log - Related Links

Times and Time Zones

All times are in EDT time to prevent confusion due to time zone crossing. See the DAL110 flight status page for this flight to view local times or setup timezone preferences in your user account.

Time Position Orientation Groundspeed Altitude Reporting Facility
EDT Latitude Longitude Course Direction KTS MPH feet Rate Location/Type
Tue 07:37:00 PM -34.7122 -58.5820 339° North  Level FlightAware Approximate
Tue 07:38:00 PM -34.6010 -58.6349 339° North  Level FlightAware Approximate
Tue 07:39:00 PM -34.4897 -58.6878 339° North  Level FlightAware Approximate
Tue 07:40:00 PM -34.3784 -58.7405 339° North  Level FlightAware Approximate
Tue 07:41:00 PM -34.2671 -58.7931 339° North  Level FlightAware Approximate
Tue 07:42:00 PM -34.1557 -58.8456 339° North  Level FlightAware Approximate
Tue 07:43:00 PM -34.0443 -58.8979 339° North  Level FlightAware Approximate
Tue 07:44:00 PM -33.9329 -58.9500 339° North  Level FlightAware Approximate
Tue 07:45:00 PM -33.8215 -59.0020 339° North  Level FlightAware Approximate
Tue 07:46:00 PM -33.7101 -59.0539 339° North  Level FlightAware Approximate
Tue 07:47:00 PM -33.5986 -59.1057 339° North  Level FlightAware Approximate
Tue 07:48:00 PM -33.4871 -59.1573 339° North  Level FlightAware Approximate
Tue 07:49:00 PM -33.3756 -59.2088 339° North  Level FlightAware Approximate
Tue 07:50:00 PM -33.2641 -59.2602 339° North  Level FlightAware Approximate
Tue 07:51:00 PM -33.1502 -59.3129 339° North  Level FlightAware Approximate
Tue 07:52:00 PM -33.0387 -59.3644 339° North  Level FlightAware Approximate
Tue 07:53:00 PM -32.9273 -59.4157 339° North  Level FlightAware Approximate
Tue 07:54:00 PM -32.8158 -59.4669 339° North  Level FlightAware Approximate
Tue 07:55:00 PM -32.7035 -59.5184 339° North  Level FlightAware Approximate
Tue 07:56:00 PM -32.5913 -59.5697 339° North  Level FlightAware Approximate
Tue 07:57:00 PM -32.4790 -59.6208 339° North  Level FlightAware Approximate
Tue 07:58:00 PM -32.3667 -59.6719 339° North  Level FlightAware Approximate
Tue 07:59:00 PM -32.2544 -59.7228 339° North  Level FlightAware Approximate
Tue 08:00:00 PM -32.1420 -59.7736 339° North  Level FlightAware Approximate
Tue 08:01:00 PM -32.0297 -59.8243 339° North  Level FlightAware Approximate
Tue 08:02:00 PM -31.9173 -59.8748 339° North  Level FlightAware Approximate
Tue 08:03:00 PM -31.8049 -59.9252 339° North  Level FlightAware Approximate
Tue 08:04:00 PM -31.6925 -59.9755 339° North  Level FlightAware Approximate
Tue 08:05:00 PM -31.5800 -60.0257 339° North  Level FlightAware Approximate
Tue 08:06:00 PM -31.4676 -60.0757 339° North  Level FlightAware Approximate
Tue 08:07:00 PM -31.3551 -60.1257 339° North  Level FlightAware Approximate
Tue 08:08:00 PM -31.2426 -60.1755 339° North  Level FlightAware Approximate
Tue 08:09:00 PM -31.1301 -60.2252 339° North  Level FlightAware Approximate
Tue 08:10:00 PM -31.0175 -60.2748 339° North  Level FlightAware Approximate
Tue 08:11:00 PM -30.9050 -60.3242 339° North  Level FlightAware Approximate
Tue 08:12:00 PM -30.7924 -60.3736 339° North  Level FlightAware Approximate
Tue 08:13:00 PM -30.6798 -60.4228 339° North  Level FlightAware Approximate
Tue 08:14:00 PM -30.5672 -60.4719 339° North  Level FlightAware Approximate
Tue 08:15:00 PM -30.4546 -60.5209 339° North  Level FlightAware Approximate
Tue 08:16:00 PM -30.3419 -60.5698 339° North  Level FlightAware Approximate
Tue 08:17:00 PM -30.2292 -60.6186 339° North  Level FlightAware Approximate
Tue 08:18:00 PM -30.1166 -60.6672 340° North  Level FlightAware Approximate
Tue 08:19:00 PM -30.0039 -60.7158 340° North  Level FlightAware Approximate
Tue 08:20:00 PM -29.8911 -60.7642 340° North  Level FlightAware Approximate
Tue 08:21:00 PM -29.7784 -60.8126 340° North  Level FlightAware Approximate
Tue 08:22:00 PM -29.6656 -60.8608 340° North  Level FlightAware Approximate
Tue 08:23:00 PM -29.5521 -60.9092 340° North  Level FlightAware Approximate
Tue 08:24:00 PM -29.4386 -60.9575 340° North  Level FlightAware Approximate
Tue 08:25:00 PM -29.3250 -61.0057 340° North  Level FlightAware Approximate
Tue 08:26:00 PM -29.2115 -61.0539 340° North  Level FlightAware Approximate
Tue 08:27:00 PM -29.0979 -61.1019 340° North  Level FlightAware Approximate
Tue 08:28:00 PM -28.9843 -61.1498 340° North  Level FlightAware Approximate
Tue 08:29:00 PM -28.8706 -61.1976 340° North  Level FlightAware Approximate
Tue 08:30:00 PM -28.7570 -61.2452 340° North  Level FlightAware Approximate
Tue 08:31:00 PM -28.6433 -61.2928 340° North  Level FlightAware Approximate
Tue 08:32:00 PM -28.5297 -61.3403 340° North  Level FlightAware Approximate
Tue 08:33:00 PM -28.4160 -61.3877 340° North  Level FlightAware Approximate
Tue 08:34:00 PM -28.3023 -61.4350 340° North  Level FlightAware Approximate
Tue 08:35:00 PM -28.1886 -61.4821 340° North  Level FlightAware Approximate
Tue 08:36:00 PM -28.0748 -61.5292 340° North  Level FlightAware Approximate
Tue 08:37:00 PM -27.9611 -61.5762 340° North  Level FlightAware Approximate
Tue 08:38:00 PM -27.8473 -61.6231 340° North  Level FlightAware Approximate
Tue 08:39:00 PM -27.7335 -61.6699 340° North  Level FlightAware Approximate
Tue 08:40:00 PM -27.6197 -61.7165 340° North  Level FlightAware Approximate
Tue 08:41:00 PM -27.5059 -61.7631 340° North  Level FlightAware Approximate
Tue 08:42:00 PM -27.3920 -61.8096 340° North  Level FlightAware Approximate
Tue 08:43:00 PM -27.2782 -61.8560 340° North  Level FlightAware Approximate
Tue 08:44:00 PM -27.1643 -61.9023 340° North  Level FlightAware Approximate
Tue 08:45:00 PM -27.0505 -61.9485 340° North  Level FlightAware Approximate
Tue 08:46:00 PM -26.9366 -61.9946 340° North  Level FlightAware Approximate
Tue 08:47:00 PM -26.8227 -62.0406 340° North  Level FlightAware Approximate
Tue 08:48:00 PM -26.7087 -62.0866 340° North  Level FlightAware Approximate
Tue 08:49:00 PM -26.5948 -62.1324 340° North  Level FlightAware Approximate
Tue 08:50:00 PM -26.4809 -62.1781 340° North  Level FlightAware Approximate
Tue 08:51:00 PM -26.3669 -62.2238 340° North  Level FlightAware Approximate
Tue 08:52:00 PM -26.2529 -62.2693 340° North  Level FlightAware Approximate
Tue 08:53:00 PM -26.1389 -62.3148 340° North  Level FlightAware Approximate
Tue 08:54:00 PM -26.0249 -62.3602 340° North  Level FlightAware Approximate
Tue 08:55:00 PM -25.9109 -62.4055 340° North  Level FlightAware Approximate
Tue 08:56:00 PM -25.7968 -62.4507 340° North  Level FlightAware Approximate
Tue 08:57:00 PM -25.6828 -62.4958 340° North  Level FlightAware Approximate
Tue 08:58:00 PM -25.5687 -62.5408 340° North  Level FlightAware Approximate
Tue 08:59:00 PM -25.4546 -62.5858 340° North  Level FlightAware Approximate
Tue 09:00:00 PM -25.3405 -62.6306 340° North  Level FlightAware Approximate
Tue 09:01:00 PM -25.2264 -62.6754 340° North  Level FlightAware Approximate
Tue 09:02:00 PM -25.1123 -62.7201 340° North  Level FlightAware Approximate
Tue 09:03:00 PM -24.9982 -62.7647 340° North  Level FlightAware Approximate
Tue 09:04:00 PM -24.8840 -62.8092 341° North  Level FlightAware Approximate
Tue 09:05:00 PM -24.7699 -62.8537 341° North  Level FlightAware Approximate
Tue 09:06:00 PM -24.6557 -62.8981 341° North  Level FlightAware Approximate
Tue 09:07:00 PM -24.5415 -62.9423 341° North  Level FlightAware Approximate
Tue 09:08:00 PM -24.4273 -62.9865 341° North  Level FlightAware Approximate
Tue 09:09:00 PM -24.3131 -63.0307 341° North  Level FlightAware Approximate
Tue 09:10:00 PM -24.1989 -63.0747 341° North  Level FlightAware Approximate
Tue 09:11:00 PM -24.0846 -63.1187 341° North  Level FlightAware Approximate
Tue 09:12:00 PM -23.9704 -63.1626 341° North  Level FlightAware Approximate
Tue 09:13:00 PM -23.8561 -63.2064 341° North  Level FlightAware Approximate
Tue 09:14:00 PM -23.7419 -63.2501 341° North  Level FlightAware Approximate
Tue 09:15:00 PM -23.6276 -63.2937 341° North  Level FlightAware Approximate
Tue 09:16:00 PM -23.5133 -63.3373 341° North  Level FlightAware Approximate
Tue 09:17:00 PM -23.3990 -63.3808 341° North  Level FlightAware Approximate
Tue 09:18:00 PM -23.2846 -63.4243 341° North  Level FlightAware Approximate
Tue 09:19:00 PM -23.1703 -63.4676 341° North  Level FlightAware Approximate
Tue 09:20:00 PM -23.0560 -63.5109 341° North  Level FlightAware Approximate
Tue 09:21:00 PM -22.9416 -63.5541 341° North  Level FlightAware Approximate
Tue 09:22:00 PM -22.8272 -63.5972 341° North  Level FlightAware Approximate
Tue 09:23:00 PM -22.7129 -63.6403 341° North  Level FlightAware Approximate
Tue 09:24:00 PM -22.5985 -63.6833 341° North  Level FlightAware Approximate
Tue 09:25:00 PM -22.4841 -63.7262 341° North  Level FlightAware Approximate
Tue 09:26:00 PM -22.3696 -63.7690 341° North  Level FlightAware Approximate
Tue 09:27:00 PM -22.2552 -63.8118 341° North  Level FlightAware Approximate
Tue 09:28:00 PM -22.1408 -63.8545 341° North  Level FlightAware Approximate
Tue 09:29:00 PM -22.0263 -63.8972 341° North  Level FlightAware Approximate
Tue 09:30:00 PM -21.9119 -63.9397 341° North  Level FlightAware Approximate
Tue 09:31:00 PM -21.7974 -63.9822 341° North  Level FlightAware Approximate
Tue 09:32:00 PM -21.6829 -64.0247 341° North  Level FlightAware Approximate
Tue 09:33:00 PM -21.5684 -64.0670 341° North  Level FlightAware Approximate
Tue 09:34:00 PM -21.4539 -64.1093 341° North  Level FlightAware Approximate
Tue 09:35:00 PM -21.3392 -64.1516 341° North  Level FlightAware Approximate
Tue 09:36:00 PM -21.2245 -64.1939 341° North  Level FlightAware Approximate
Tue 09:37:00 PM -21.1098 -64.2360 341° North  Level FlightAware Approximate
Tue 09:38:00 PM -20.9951 -64.2781 341° North  Level FlightAware Approximate
Tue 09:39:00 PM -20.8803 -64.3202 341° North  Level FlightAware Approximate
Tue 09:40:00 PM -20.7655 -64.3622 341° North  Level FlightAware Approximate
Tue 09:41:00 PM -20.6508 -64.4041 341° North  Level FlightAware Approximate
Tue 09:42:00 PM -20.5360 -64.4459 341° North  Level FlightAware Approximate
Tue 09:43:00 PM -20.4212 -64.4877 341° North  Level FlightAware Approximate
Tue 09:44:00 PM -20.3064 -64.5294 341° North  Level FlightAware Approximate
Tue 09:45:00 PM -20.1916 -64.5711 341° North  Level FlightAware Approximate
Tue 09:46:00 PM -20.0768 -64.6127 341° North  Level FlightAware Approximate
Tue 09:47:00 PM -19.9619 -64.6542 341° North  Level FlightAware Approximate
Tue 09:48:00 PM -19.8471 -64.6957 341° North  Level FlightAware Approximate
Tue 09:49:00 PM -19.7323 -64.7371 341° North  Level FlightAware Approximate
Tue 09:50:00 PM -19.6174 -64.7785 341° North  Level FlightAware Approximate
Tue 09:51:00 PM -19.5026 -64.8198 341° North  Level FlightAware Approximate
Tue 09:52:00 PM -19.3877 -64.8610 341° North  Level FlightAware Approximate
Tue 09:53:00 PM -19.2728 -64.9022 341° North  Level FlightAware Approximate
Tue 09:54:00 PM -19.1579 -64.9433 341° North  Level FlightAware Approximate
Tue 09:55:00 PM -19.0430 -64.9844 341° North  Level FlightAware Approximate
Tue 09:56:00 PM -18.9281 -65.0254 341° North  Level FlightAware Approximate
Tue 09:57:00 PM -18.8132 -65.0664 341° North  Level FlightAware Approximate
Tue 09:58:00 PM -18.6982 -65.1073 341° North  Level FlightAware Approximate
Tue 09:59:00 PM -18.5833 -65.1481 341° North  Level FlightAware Approximate
Tue 10:00:00 PM -18.4684 -65.1889 341° North  Level FlightAware Approximate
Tue 10:01:00 PM -18.3534 -65.2296 341° North  Level FlightAware Approximate
Tue 10:02:00 PM -18.2384 -65.2703 341° North  Level FlightAware Approximate
Tue 10:03:00 PM -18.1235 -65.3109 341° North  Level FlightAware Approximate
Tue 10:04:00 PM -18.0085 -65.3515 341° North  Level FlightAware Approximate
Tue 10:05:00 PM -17.8935 -65.3920 341° North  Level FlightAware Approximate
Tue 10:06:00 PM -17.7785 -65.4325 341° North  Level FlightAware Approximate
Tue 10:07:00 PM -17.6635 -65.4729 341° North  Level FlightAware Approximate
Tue 10:08:00 PM -17.5485 -65.5133 341° North  Level FlightAware Approximate
Tue 10:09:00 PM -17.4335 -65.5536 342° North  Level FlightAware Approximate
Tue 10:10:00 PM -17.3185 -65.5938 342° North  Level FlightAware Approximate
Tue 10:11:00 PM -17.2034 -65.6341 342° North  Level FlightAware Approximate
Tue 10:12:00 PM -17.0884 -65.6742 342° North  Level FlightAware Approximate
Tue 10:13:00 PM -16.9733 -65.7143 342° North  Level FlightAware Approximate
Tue 10:14:00 PM -16.8582 -65.7544 342° North  Level FlightAware Approximate
Tue 10:15:00 PM -16.7432 -65.7944 342° North  Level FlightAware Approximate
Tue 10:16:00 PM -16.6281 -65.8344 342° North  Level FlightAware Approximate
Tue 10:17:00 PM -16.5130 -65.8743 342° North  Level FlightAware Approximate
Tue 10:18:00 PM -16.3979 -65.9142 342° North  Level FlightAware Approximate
Tue 10:19:00 PM -16.2828 -65.9540 342° North  Level FlightAware Approximate
Tue 10:20:00 PM -16.1677 -65.9938 342° North  Level FlightAware Approximate
Tue 10:21:00 PM -16.0526 -66.0335 342° North  Level FlightAware Approximate
Tue 10:22:00 PM -15.9375 -66.0732 342° North  Level FlightAware Approximate
Tue 10:23:00 PM -15.8224 -66.1128 342° North  Level FlightAware Approximate
Tue 10:24:00 PM -15.7072 -66.1524 342° North  Level FlightAware Approximate
Tue 10:25:00 PM -15.5921 -66.1919 342° North  Level FlightAware Approximate
Tue 10:26:00 PM -15.4769 -66.2315 342° North  Level FlightAware Approximate
Tue 10:27:00 PM -15.3618 -66.2709 342° North  Level FlightAware Approximate
Tue 10:28:00 PM -15.2466 -66.3103 342° North  Level FlightAware Approximate
Tue 10:29:00 PM -15.1314 -66.3497 342° North  Level FlightAware Approximate
Tue 10:30:00 PM -15.0163 -66.3890 342° North  Level FlightAware Approximate
Tue 10:31:00 PM -14.9011 -66.4283 342° North  Level FlightAware Approximate
Tue 10:32:00 PM -14.7859 -66.4676 342° North  Level FlightAware Approximate
Tue 10:33:00 PM -14.6707 -66.5068 342° North  Level FlightAware Approximate
Tue 10:34:00 PM -14.5555 -66.5459 342° North  Level FlightAware Approximate
Tue 10:35:00 PM -14.4403 -66.5851 342° North  Level FlightAware Approximate
Tue 10:36:00 PM -14.3251 -66.6241 342° North  Level FlightAware Approximate
Tue 10:37:00 PM -14.2098 -66.6632 342° North  Level FlightAware Approximate
Tue 10:38:00 PM -14.0946 -66.7022 342° North  Level FlightAware Approximate
Tue 10:39:00 PM -13.9794 -66.7411 342° North  Level FlightAware Approximate
Tue 10:40:00 PM -13.8641 -66.7801 342° North  Level FlightAware Approximate
Tue 10:41:00 PM -13.7489 -66.8189 342° North  Level FlightAware Approximate
Tue 10:42:00 PM -13.6336 -66.8578 342° North  Level FlightAware Approximate
Tue 10:43:00 PM -13.5184 -66.8966 342° North  Level FlightAware Approximate
Tue 10:44:00 PM -13.4031 -66.9354 342° North  Level FlightAware Approximate
Tue 10:45:00 PM -13.2878 -66.9741 342° North  Level FlightAware Approximate
Tue 10:46:00 PM -13.1726 -67.0128 342° North  Level FlightAware Approximate
Tue 10:47:00 PM -13.0573 -67.0515 342° North  Level FlightAware Approximate
Tue 10:48:00 PM -12.9420 -67.0901 342° North  Level FlightAware Approximate
Tue 10:49:00 PM -12.8269 -67.1286 342° North  Level FlightAware Approximate
Tue 10:50:00 PM -12.7118 -67.1671 342° North  Level FlightAware Approximate
Tue 10:51:00 PM -12.5966 -67.2056 342° North  Level FlightAware Approximate
Tue 10:52:00 PM -12.4815 -67.2440 342° North  Level FlightAware Approximate
Tue 10:53:00 PM -12.3664 -67.2824 342° North  Level FlightAware Approximate
Tue 10:54:00 PM -12.2513 -67.3207 342° North  Level FlightAware Approximate
Tue 10:55:00 PM -12.1361 -67.3590 342° North  Level FlightAware Approximate
Tue 10:56:00 PM -12.0210 -67.3973 342° North  Level FlightAware Approximate
Tue 10:57:00 PM -11.9058 -67.4356 342° North  Level FlightAware Approximate
Tue 10:58:00 PM -11.7907 -67.4738 342° North  Level FlightAware Approximate
Tue 10:59:00 PM -11.6755 -67.5120 342° North  Level FlightAware Approximate
Tue 11:00:00 PM -11.5604 -67.5502 342° North  Level FlightAware Approximate
Tue 11:01:00 PM -11.4452 -67.5883 342° North  Level FlightAware Approximate
Tue 11:02:00 PM -11.3300 -67.6264 342° North  Level FlightAware Approximate
Tue 11:03:00 PM -11.2148 -67.6645 342° North  Level FlightAware Approximate
Tue 11:04:00 PM -11.0997 -67.7025 342° North  Level FlightAware Approximate
Tue 11:05:00 PM -10.9845 -67.7405 342° North  Level FlightAware Approximate
Tue 11:06:00 PM -10.8693 -67.7785 342° North  Level FlightAware Approximate
Tue 11:07:00 PM -10.7541 -67.8164 342° North  Level FlightAware Approximate
Tue 11:08:00 PM -10.6389 -67.8543 342° North  Level FlightAware Approximate
Tue 11:09:00 PM -10.5237 -67.8922 342° North  Level FlightAware Approximate
Tue 11:10:00 PM -10.4085 -67.9301 342° North  Level FlightAware Approximate
Tue 11:11:00 PM -10.2932 -67.9679 342° North  Level FlightAware Approximate
Tue 11:12:00 PM -10.1780 -68.0057 342° North  Level FlightAware Approximate
Tue 11:13:00 PM -10.0628 -68.0435 342° North  Level FlightAware Approximate
Tue 11:14:00 PM -9.9476 -68.0812 342° North  Level FlightAware Approximate
Tue 11:15:00 PM -9.8323 -68.1190 342° North  Level FlightAware Approximate
Tue 11:16:00 PM -9.7171 -68.1567 342° North  Level FlightAware Approximate
Tue 11:17:00 PM -9.6019 -68.1943 342° North  Level FlightAware Approximate
Tue 11:18:00 PM -9.4866 -68.2320 342° North  Level FlightAware Approximate
Tue 11:19:00 PM -9.3714 -68.2696 342° North  Level FlightAware Approximate
Tue 11:20:00 PM -9.2561 -68.3072 342° North  Level FlightAware Approximate
Tue 11:21:00 PM -9.1409 -68.3448 342° North  Level FlightAware Approximate
Tue 11:22:00 PM -9.0256 -68.3823 342° North  Level FlightAware Approximate
Tue 11:23:00 PM -8.9103 -68.4198 342° North  Level FlightAware Approximate
Tue 11:24:00 PM -8.7951 -68.4573 342° North  Level FlightAware Approximate
Tue 11:25:00 PM -8.6798 -68.4948 342° North  Level FlightAware Approximate
Tue 11:26:00 PM -8.5645 -68.5323 342° North  Level FlightAware Approximate
Tue 11:27:00 PM -8.4492 -68.5697 342° North  Level FlightAware Approximate
Tue 11:28:00 PM -8.3340 -68.6071 342° North  Level FlightAware Approximate
Tue 11:29:00 PM -8.2187 -68.6445 342° North  Level FlightAware Approximate
Tue 11:30:00 PM -8.1034 -68.6818 342° North  Level FlightAware Approximate
Tue 11:31:00 PM -7.9881 -68.7192 342° North  Level FlightAware Approximate
Tue 11:32:00 PM -7.8728 -68.7565 342° North  Level FlightAware Approximate
Tue 11:33:00 PM -7.7575 -68.7938 342° North  Level FlightAware Approximate
Tue 11:34:00 PM -7.6422 -68.8311 342° North  Level FlightAware Approximate
Tue 11:35:00 PM -7.5269 -68.8683 342° North  Level FlightAware Approximate
Tue 11:36:00 PM -7.4116 -68.9056 342° North  Level FlightAware Approximate
Tue 11:37:00 PM -7.2962 -68.9428 342° North  Level FlightAware Approximate
Tue 11:38:00 PM -7.1809 -68.9800 342° North  Level FlightAware Approximate
Tue 11:39:00 PM -7.0656 -69.0172 342° North  Level FlightAware Approximate
Tue 11:40:00 PM -6.9503 -69.0544 342° North  Level FlightAware Approximate
Tue 11:41:00 PM -6.8350 -69.0915 342° North  Level FlightAware Approximate
Tue 11:42:00 PM -6.7196 -69.1286 342° North  Level FlightAware Approximate
Tue 11:43:00 PM -6.6043 -69.1657 342° North  Level FlightAware Approximate
Tue 11:44:00 PM -6.4890 -69.2028 342° North  Level FlightAware Approximate
Tue 11:45:00 PM -6.3736 -69.2399 342° North  Level FlightAware Approximate
Tue 11:46:00 PM -6.2583 -69.2770 342° North  Level FlightAware Approximate
Tue 11:47:00 PM -6.1430 -69.3140 342° North  Level FlightAware Approximate
Tue 11:48:00 PM -6.0276 -69.3510 342° North  Level FlightAware Approximate
Tue 11:49:00 PM -5.9123 -69.3880 342° North  Level FlightAware Approximate
Tue 11:50:00 PM -5.7969 -69.4250 342° North  Level FlightAware Approximate
Tue 11:51:00 PM -5.6816 -69.4620 342° North  Level FlightAware Approximate
Tue 11:52:00 PM -5.5662 -69.4990 342° North  Level FlightAware Approximate
Tue 11:53:00 PM -5.4509 -69.5359 342° North  Level FlightAware Approximate
Tue 11:54:00 PM -5.3355 -69.5729 342° North  Level FlightAware Approximate
Tue 11:55:00 PM -5.2201 -69.6098 342° North  Level FlightAware Approximate
Tue 11:56:00 PM -5.1048 -69.6467 342° North  Level FlightAware Approximate
Tue 11:57:00 PM -4.9894 -69.6836 342° North  Level FlightAware Approximate
Tue 11:58:00 PM -4.8741 -69.7205 342° North  Level FlightAware Approximate
Tue 11:59:00 PM -4.7587 -69.7574 342° North  Level FlightAware Approximate
Wed 12:00:00 AM -4.6435 -69.7942 342° North  Level FlightAware Approximate
Wed 12:01:00 AM -4.5283 -69.8309 342° North  Level FlightAware Approximate
Wed 12:02:00 AM -4.4131 -69.8677 342° North  Level FlightAware Approximate
Wed 12:03:00 AM -4.2979 -69.9045 342° North  Level FlightAware Approximate
Wed 12:04:00 AM -4.1828 -69.9412 342° North  Level FlightAware Approximate
Wed 12:05:00 AM -4.0676 -69.9780 342° North  Level FlightAware Approximate
Wed 12:06:00 AM -3.9524 -70.0147 342° North  Level FlightAware Approximate
Wed 12:07:00 AM -3.8372 -70.0514 342° North  Level FlightAware Approximate
Wed 12:08:00 AM -3.7220 -70.0881 342° North  Level FlightAware Approximate
Wed 12:09:00 AM -3.6068 -70.1248 342° North  Level FlightAware Approximate
Wed 12:10:00 AM -3.4916 -70.1615 342° North  Level FlightAware Approximate
Wed 12:11:00 AM -3.3764 -70.1982 342° North  Level FlightAware Approximate
Wed 12:12:00 AM -3.2612 -70.2349 342° North  Level FlightAware Approximate
Wed 12:13:00 AM -3.1460 -70.2715 342° North  Level FlightAware Approximate
Wed 12:14:00 AM -3.0308 -70.3082 342° North  Level FlightAware Approximate
Wed 12:15:00 AM -2.9156 -70.3448 342° North  Level FlightAware Approximate
Wed 12:16:00 AM -2.8004 -70.3815 342° North  Level FlightAware Approximate
Wed 12:17:00 AM -2.6852 -70.4181 342° North  Level FlightAware Approximate
Wed 12:18:00 AM -2.5700 -70.4547 342° North  Level FlightAware Approximate
Wed 12:19:00 AM -2.4548 -70.4914 342° North  Level FlightAware Approximate
Wed 12:20:00 AM -2.3396 -70.5280 342° North  Level FlightAware Approximate
Wed 12:21:00 AM -2.2243 -70.5646 342° North  Level FlightAware Approximate
Wed 12:22:00 AM -2.1091 -70.6012 342° North  Level FlightAware Approximate
Wed 12:23:00 AM -1.9939 -70.6378 342° North  Level FlightAware Approximate
Wed 12:24:00 AM -1.8787 -70.6744 342° North  Level FlightAware Approximate
Wed 12:25:00 AM -1.7635 -70.7110 342° North  Level FlightAware Approximate
Wed 12:26:00 AM -1.6483 -70.7475 342° North  Level FlightAware Approximate
Wed 12:27:00 AM -1.5331 -70.7841 342° North  Level FlightAware Approximate
Wed 12:28:00 AM -1.4179 -70.8207 342° North  Level FlightAware Approximate
Wed 12:29:00 AM -1.3026 -70.8573 342° North  Level FlightAware Approximate
Wed 12:30:00 AM -1.1874 -70.8938 342° North  Level FlightAware Approximate
Wed 12:31:00 AM -1.0722 -70.9304 342° North  Level FlightAware Approximate
Wed 12:32:00 AM -0.9570 -70.9669 342° North  Level FlightAware Approximate
Wed 12:33:00 AM -0.8418 -71.0035 342° North  Level FlightAware Approximate
Wed 12:34:00 AM -0.7265 -71.0401 342° North  Level FlightAware Approximate
Wed 12:35:00 AM -0.6113 -71.0766 342° North  Level FlightAware Approximate
Wed 12:36:00 AM -0.4961 -71.1132 342° North  Level FlightAware Approximate
Wed 12:37:00 AM -0.3809 -71.1497 342° North  Level FlightAware Approximate
Wed 12:38:00 AM -0.2657 -71.1863 342° North  Level FlightAware Approximate
Wed 12:39:00 AM -0.1505 -71.2228 342° North  Level FlightAware Approximate
Wed 12:40:00 AM -0.0352 -71.2594 342° North  Level FlightAware Approximate
Wed 12:41:00 AM 0.0800 -71.2959 342° North  Level FlightAware Approximate
Wed 12:42:00 AM 0.1952 -71.3325 342° North  Level FlightAware Approximate
Wed 12:43:00 AM 0.3104 -71.3690 342° North  Level FlightAware Approximate
Wed 12:44:00 AM 0.4257 -71.4056 342° North  Level FlightAware Approximate
Wed 12:45:00 AM 0.5409 -71.4421 342° North  Level FlightAware Approximate
Wed 12:46:00 AM 0.6561 -71.4787 342° North  Level FlightAware Approximate
Wed 12:47:00 AM 0.7713 -71.5153 342° North  Level FlightAware Approximate
Wed 12:48:00 AM 0.8865 -71.5518 342° North  Level FlightAware Approximate
Wed 12:49:00 AM 1.0017 -71.5886 342° North  Level FlightAware Approximate
Wed 12:50:00 AM 1.1167 -71.6256 342° North  Level FlightAware Approximate
Wed 12:51:00 AM 1.2318 -71.6626 342° North  Level FlightAware Approximate
Wed 12:52:00 AM 1.3469 -71.6996 342° North  Level FlightAware Approximate
Wed 12:53:00 AM 1.4620 -71.7366 342° North  Level FlightAware Approximate
Wed 12:54:00 AM 1.5771 -71.7736 342° North  Level FlightAware Approximate
Wed 12:55:00 AM 1.6921 -71.8105 342° North  Level FlightAware Approximate
Wed 12:56:00 AM 1.8072 -71.8475 342° North  Level FlightAware Approximate
Wed 12:57:00 AM 1.9224 -71.8844 342° North  Level FlightAware Approximate
Wed 12:58:00 AM 2.0375 -71.9211 342° North  Level FlightAware Approximate
Wed 12:59:00 AM 2.1527 -71.9578 342° North  Level FlightAware Approximate
Wed 01:00:00 AM 2.2679 -71.9945 342° North  Level FlightAware Approximate
Wed 01:01:00 AM 2.3831 -72.0312 342° North  Level FlightAware Approximate
Wed 01:02:00 AM 2.4983 -72.0679 342° North  Level FlightAware Approximate
Wed 01:03:00 AM 2.6134 -72.1046 342° North  Level FlightAware Approximate
Wed 01:04:00 AM 2.7286 -72.1413 342° North  Level FlightAware Approximate
Wed 01:05:00 AM 2.8438 -72.1780 342° North  Level FlightAware Approximate
Wed 01:06:00 AM 2.9590 -72.2147 342° North  Level FlightAware Approximate
Wed 01:07:00 AM 3.0742 -72.2515 342° North  Level FlightAware Approximate
Wed 01:08:00 AM 3.1893 -72.2882 342° North  Level FlightAware Approximate
Wed 01:09:00 AM 3.3043 -72.3249 342° North  Level FlightAware Approximate
Wed 01:10:00 AM 3.4193 -72.3616 342° North  Level FlightAware Approximate
Wed 01:11:00 AM 3.5343 -72.3983 342° North  Level FlightAware Approximate
Wed 01:12:00 AM 3.6493 -72.4351 342° North  Level FlightAware Approximate
Wed 01:13:00 AM 3.7642 -72.4718 342° North  Level FlightAware Approximate
Wed 01:14:00 AM 3.8792 -72.5085 342° North  Level FlightAware Approximate
Wed 01:15:00 AM 3.9942 -72.5453 342° North  Level FlightAware Approximate
Wed 01:16:00 AM 4.1091 -72.5820 342° North  Level FlightAware Approximate
Wed 01:17:00 AM 4.2241 -72.6188 342° North  Level FlightAware Approximate
Wed 01:18:00 AM 4.3391 -72.6556 342° North  Level FlightAware Approximate
Wed 01:19:00 AM 4.4541 -72.6924 342° North  Level FlightAware Approximate
Wed 01:20:00 AM 4.5690 -72.7292 342° North  Level FlightAware Approximate
Wed 01:21:00 AM 4.6840 -72.7660 342° North  Level FlightAware Approximate
Wed 01:22:00 AM 4.7990 -72.8028 342° North  Level FlightAware Approximate
Wed 01:23:00 AM 4.9139 -72.8397 342° North  Level FlightAware Approximate
Wed 01:24:00 AM 5.0289 -72.8765 342° North  Level FlightAware Approximate
Wed 01:25:00 AM 5.1438 -72.9134 342° North  Level FlightAware Approximate
Wed 01:26:00 AM 5.2588 -72.9503 342° North  Level FlightAware Approximate
Wed 01:27:00 AM 5.3737 -72.9872 342° North  Level FlightAware Approximate
Wed 01:28:00 AM 5.4887 -73.0241 342° North  Level FlightAware Approximate
Wed 01:29:00 AM 5.6036 -73.0610 342° North  Level FlightAware Approximate
Wed 01:30:00 AM 5.7186 -73.0979 342° North  Level FlightAware Approximate
Wed 01:31:00 AM 5.8335 -73.1349 342° North  Level FlightAware Approximate
Wed 01:32:00 AM 5.9485 -73.1719 342° North  Level FlightAware Approximate
Wed 01:33:00 AM 6.0634 -73.2088 342° North  Level FlightAware Approximate
Wed 01:34:00 AM 6.1783 -73.2458 342° North  Level FlightAware Approximate
Wed 01:35:00 AM 6.2933 -73.2828 342° North  Level FlightAware Approximate
Wed 01:36:00 AM 6.4082 -73.3199 342° North  Level FlightAware Approximate
Wed 01:37:00 AM 6.5231 -73.3569 342° North  Level FlightAware Approximate
Wed 01:38:00 AM 6.6380 -73.3940 342° North  Level FlightAware Approximate
Wed 01:39:00 AM 6.7530 -73.4311 342° North  Level FlightAware Approximate
Wed 01:40:00 AM 6.8679 -73.4682 342° North  Level FlightAware Approximate
Wed 01:41:00 AM 6.9828 -73.5053 342° North  Level FlightAware Approximate
Wed 01:42:00 AM 7.0977 -73.5424 342° North  Level FlightAware Approximate
Wed 01:43:00 AM 7.2126 -73.5796 342° North  Level FlightAware Approximate
Wed 01:44:00 AM 7.3275 -73.6167 342° North  Level FlightAware Approximate
Wed 01:45:00 AM 7.4424 -73.6539 342° North  Level FlightAware Approximate
Wed 01:46:00 AM 7.5573 -73.6911 342° North  Level FlightAware Approximate
Wed 01:47:00 AM 7.6722 -73.7284 342° North  Level FlightAware Approximate
Wed 01:48:00 AM 7.7871 -73.7656 342° North  Level FlightAware Approximate
Wed 01:49:00 AM 7.9020 -73.8029 342° North  Level FlightAware Approximate
Wed 01:50:00 AM 8.0169 -73.8402 342° North  Level FlightAware Approximate
Wed 01:51:00 AM 8.1318 -73.8775 342° North  Level FlightAware Approximate
Wed 01:52:00 AM 8.2467 -73.9148 342° North  Level FlightAware Approximate
Wed 01:53:00 AM 8.3615 -73.9522 342° North  Level FlightAware Approximate
Wed 01:54:00 AM 8.4764 -73.9896 342° North  Level FlightAware Approximate
Wed 01:55:00 AM 8.5913 -74.0270 342° North  Level FlightAware Approximate
Wed 01:56:00 AM 8.7062 -74.0644 342° North  Level FlightAware Approximate
Wed 01:57:00 AM 8.8210 -74.1018 342° North  Level FlightAware Approximate
Wed 01:58:00 AM 8.9359 -74.1393 342° North  Level FlightAware Approximate
Wed 01:59:00 AM 9.0507 -74.1768 342° North  Level FlightAware Approximate
Wed 02:00:00 AM 9.1656 -74.2143 342° North  Level FlightAware Approximate
Wed 02:01:00 AM 9.2804 -74.2519 342° North  Level FlightAware Approximate
Wed 02:02:00 AM 9.3953 -74.2894 342° North  Level FlightAware Approximate
Wed 02:03:00 AM 9.5101 -74.3270 342° North  Level FlightAware Approximate
Wed 02:04:00 AM 9.6250 -74.3646 342° North  Level FlightAware Approximate
Wed 02:05:00 AM 9.7398 -74.4023 342° North  Level FlightAware Approximate
Wed 02:06:00 AM 9.8546 -74.4399 342° North  Level FlightAware Approximate
Wed 02:07:00 AM 9.9694 -74.4776 342° North  Level FlightAware Approximate
Wed 02:08:00 AM 10.0843 -74.5154 342° North  Level FlightAware Approximate
Wed 02:09:00 AM 10.1991 -74.5531 342° North  Level FlightAware Approximate
Wed 02:10:00 AM 10.3139 -74.5909 342° North  Level FlightAware Approximate
Wed 02:11:00 AM 10.4287 -74.6287 342° North  Level FlightAware Approximate
Wed 02:12:00 AM 10.5435 -74.6665 342° North  Level FlightAware Approximate
Wed 02:13:00 AM 10.6583 -74.7044 342° North  Level FlightAware Approximate
Wed 02:14:00 AM 10.7731 -74.7423 342° North  Level FlightAware Approximate
Wed 02:15:00 AM 10.8879 -74.7802 342° North  Level FlightAware Approximate
Wed 02:16:00 AM 11.0027 -74.8181 342° North  Level FlightAware Approximate
Wed 02:17:00 AM 11.1174 -74.8561 342° North  Level FlightAware Approximate
Wed 02:18:00 AM 11.2322 -74.8941 342° North  Level FlightAware Approximate
Wed 02:19:00 AM 11.3473 -74.9312 343° North  Level FlightAware Approximate
Wed 02:20:00 AM 11.4625 -74.9681 343° North  Level FlightAware Approximate
Wed 02:21:00 AM 11.5776 -75.0051 343° North  Level FlightAware Approximate
Wed 02:22:00 AM 11.6927 -75.0420 343° North  Level FlightAware Approximate
Wed 02:23:00 AM 11.8078 -75.0790 343° North  Level FlightAware Approximate
Wed 02:24:00 AM 11.9229 -75.1161 343° North  Level FlightAware Approximate
Wed 02:25:00 AM 12.0380 -75.1532 343° North  Level FlightAware Approximate
Wed 02:26:00 AM 12.1531 -75.1902 343° North  Level FlightAware Approximate
Wed 02:27:00 AM 12.2679 -75.2282 342° North  Level FlightAware Approximate
Wed 02:28:00 AM 12.3827 -75.2665 342° North  Level FlightAware Approximate
Wed 02:29:00 AM 12.4974 -75.3048 342° North  Level FlightAware Approximate
Wed 02:30:00 AM 12.6121 -75.3431 342° North  Level FlightAware Approximate
Wed 02:31:00 AM 12.7269 -75.3815 342° North  Level FlightAware Approximate
Wed 02:32:00 AM 12.8416 -75.4199 342° North  Level FlightAware Approximate
Wed 02:33:00 AM 12.9563 -75.4584 342° North  Level FlightAware Approximate
Wed 02:34:00 AM 13.0714 -75.4970 342° North  Level FlightAware Approximate
Wed 02:35:00 AM 13.1865 -75.5356 342° North  Level FlightAware Approximate
Wed 02:36:00 AM 13.3015 -75.5743 342° North  Level FlightAware Approximate
Wed 02:37:00 AM 13.4166 -75.6130 342° North  Level FlightAware Approximate
Wed 02:38:00 AM 13.5316 -75.6518 342° North  Level FlightAware Approximate
Wed 02:39:00 AM 13.6467 -75.6906 342° North  Level FlightAware Approximate
Wed 02:40:00 AM 13.7618 -75.7294 342° North  Level FlightAware Approximate
Wed 02:41:00 AM 13.8768 -75.7683 342° North  Level FlightAware Approximate
Wed 02:42:00 AM 13.9918 -75.8072 342° North  Level FlightAware Approximate
Wed 02:43:00 AM 14.1069 -75.8462 342° North  Level FlightAware Approximate
Wed 02:44:00 AM 14.2219 -75.8851 342° North  Level FlightAware Approximate
Wed 02:45:00 AM 14.3369 -75.9242 342° North  Level FlightAware Approximate
Wed 02:46:00 AM 14.4519 -75.9632 342° North  Level FlightAware Approximate
Wed 02:47:00 AM 14.5669 -76.0023 342° North  Level FlightAware Approximate
Wed 02:48:00 AM 14.6819 -76.0415 342° North  Level FlightAware Approximate
Wed 02:49:00 AM 14.7969 -76.0807 342° North  Level FlightAware Approximate
Wed 02:50:00 AM 14.9119 -76.1199 342° North  Level FlightAware Approximate
Wed 02:51:00 AM 15.0269 -76.1592 342° North  Level FlightAware Approximate
Wed 02:52:00 AM 15.1419 -76.1984 342° North  Level FlightAware Approximate
Wed 02:53:00 AM 15.2569 -76.2377 342° North  Level FlightAware Approximate
Wed 02:54:00 AM 15.3718 -76.2771 342° North  Level FlightAware Approximate
Wed 02:55:00 AM 15.4868 -76.3165 342° North  Level FlightAware Approximate
Wed 02:56:00 AM 15.6018 -76.3559 342° North  Level FlightAware Approximate
Wed 02:57:00 AM 15.7167 -76.3954 342° North  Level FlightAware Approximate
Wed 02:58:00 AM 15.8317 -76.4349 342° North  Level FlightAware Approximate
Wed 02:59:00 AM 15.9466 -76.4745 342° North  Level FlightAware Approximate
Wed 03:00:00 AM 16.0616 -76.5141 342° North  Level FlightAware Approximate
Wed 03:01:00 AM 16.1765 -76.5537 342° North  Level FlightAware Approximate
Wed 03:02:00 AM 16.2914 -76.5934 342° North  Level FlightAware Approximate
Wed 03:03:00 AM 16.4063 -76.6332 342° North  Level FlightAware Approximate
Wed 03:04:00 AM 16.5212 -76.6730 342° North  Level FlightAware Approximate
Wed 03:05:00 AM 16.6361 -76.7128 342° North  Level FlightAware Approximate
Wed 03:06:00 AM 16.7510 -76.7527 342° North  Level FlightAware Approximate
Wed 03:07:00 AM 16.8659 -76.7926 342° North  Level FlightAware Approximate
Wed 03:08:00 AM 16.9807 -76.8326 342° North  Level FlightAware Approximate
Wed 03:09:00 AM 17.0956 -76.8727 342° North  Level FlightAware Approximate
Wed 03:10:00 AM 17.2105 -76.9128 342° North  Level FlightAware Approximate
Wed 03:11:00 AM 17.3253 -76.9529 342° North  Level FlightAware Approximate
Wed 03:12:00 AM 17.4402 -76.9931 342° North  Level FlightAware Approximate
Wed 03:13:00 AM 17.5550 -77.0333 342° North  Level FlightAware Approximate
Wed 03:14:00 AM 17.6698 -77.0736 342° North  Level FlightAware Approximate
Wed 03:15:00 AM 17.7847 -77.1140 342° North  Level FlightAware Approximate
Wed 03:16:00 AM 17.8995 -77.1544 341° North  Level FlightAware Approximate
Wed 03:17:00 AM 18.0143 -77.1948 341° North  Level FlightAware Approximate
Wed 03:18:00 AM 18.1290 -77.2353 341° North  Level FlightAware Approximate
Wed 03:19:00 AM 18.2438 -77.2758 341° North  Level FlightAware Approximate
Wed 03:20:00 AM 18.3586 -77.3165 341° North  Level FlightAware Approximate
Wed 03:21:00 AM 18.4734 -77.3571 341° North  Level FlightAware Approximate
Wed 03:22:00 AM 18.5881 -77.3978 341° North  Level FlightAware Approximate
Wed 03:23:00 AM 18.7029 -77.4386 341° North  Level FlightAware Approximate
Wed 03:24:00 AM 18.8176 -77.4794 341° North  Level FlightAware Approximate
Wed 03:25:00 AM 18.9324 -77.5203 341° North  Level FlightAware Approximate
Wed 03:26:00 AM 19.0471 -77.5612 341° North  Level FlightAware Approximate
Wed 03:27:00 AM 19.1618 -77.6022 341° North  Level FlightAware Approximate
Wed 03:28:00 AM 19.2765 -77.6433 341° North  Level FlightAware Approximate
Wed 03:29:00 AM 19.3912 -77.6844 341° North  Level FlightAware Approximate
Wed 03:30:00 AM 19.5059 -77.7255 341° North  Level FlightAware Approximate
Wed 03:31:00 AM 19.6206 -77.7667 341° North  Level FlightAware Approximate
Wed 03:32:00 AM 19.7352 -77.8082 341° North  Level FlightAware Approximate
Wed 03:33:00 AM 19.8498 -77.8498 341° North  Level FlightAware Approximate
Wed 03:34:00 AM 19.9643 -77.8915 341° North  Level FlightAware Approximate
Wed 03:35:00 AM 20.0789 -77.9333 341° North  Level FlightAware Approximate
Wed 03:36:00 AM 20.1934 -77.9751 341° North  Level FlightAware Approximate
Wed 03:37:00 AM 20.3079 -78.0170 341° North  Level FlightAware Approximate
Wed 03:38:00 AM 20.4225 -78.0589 341° North  Level FlightAware Approximate
Wed 03:39:00 AM 20.5370 -78.1009 341° North  Level FlightAware Approximate
Wed 03:40:00 AM 20.6515 -78.1430 341° North  Level FlightAware Approximate
Wed 03:41:00 AM 20.7660 -78.1851 341° North  Level FlightAware Approximate
Wed 03:42:00 AM 20.8804 -78.2273 341° North  Level FlightAware Approximate
Wed 03:43:00 AM 20.9949 -78.2695 341° North  Level FlightAware Approximate
Wed 03:44:00 AM 21.1094 -78.3118 341° North  Level FlightAware Approximate
Wed 03:45:00 AM 21.2238 -78.3542 341° North  Level FlightAware Approximate
Wed 03:46:00 AM 21.3382 -78.3967 341° North  Level FlightAware Approximate
Wed 03:47:00 AM 21.4527 -78.4392 341° North  Level FlightAware Approximate
Wed 03:48:00 AM 21.5671 -78.4818 341° North  Level FlightAware Approximate
Wed 03:49:00 AM 21.6815 -78.5244 341° North  Level FlightAware Approximate
Wed 03:50:00 AM 21.7959 -78.5671 341° North  Level FlightAware Approximate
Wed 03:51:00 AM 21.9102 -78.6099 341° North  Level FlightAware Approximate
Wed 03:52:00 AM 22.0246 -78.6528 341° North  Level FlightAware Approximate
Wed 03:53:00 AM 22.1390 -78.6957 341° North  Level FlightAware Approximate
Wed 03:54:00 AM 22.2533 -78.7387 341° North  Level FlightAware Approximate
Wed 03:55:00 AM 22.3678 -78.7810 341° North  Level FlightAware Approximate
Wed 03:56:00 AM 22.4825 -78.8231 341° North  Level FlightAware Approximate
Wed 03:57:00 AM 22.5971 -78.8653 341° North  Level FlightAware Approximate
Wed 03:58:00 AM 22.7118 -78.9076 341° North  Level FlightAware Approximate
Wed 03:59:00 AM 22.8264 -78.9499 341° North  Level FlightAware Approximate
Wed 04:00:00 AM 22.9409 -78.9926 341° North  Level FlightAware Approximate
Wed 04:01:00 AM 23.0551 -79.0362 341° North  Level FlightAware Approximate
Wed 04:02:00 AM 23.1693 -79.0799 341° North  Level FlightAware Approximate
Wed 04:03:00 AM 23.2835 -79.1236 341° North  Level FlightAware Approximate
Wed 04:04:00 AM 23.3977 -79.1675 341° North  Level FlightAware Approximate
Wed 04:05:00 AM 23.5119 -79.2114 341° North  Level FlightAware Approximate
Wed 04:06:00 AM 23.6261 -79.2554 341° North  Level FlightAware Approximate
Wed 04:07:00 AM 23.7402 -79.2994 341° North  Level FlightAware Approximate
Wed 04:08:00 AM 23.8544 -79.3436 341° North  Level FlightAware Approximate
Wed 04:09:00 AM 23.9685 -79.3878 341° North  Level FlightAware Approximate
Wed 04:10:00 AM 24.0816 -79.4348 341° North  Level FlightAware Approximate
Wed 04:10:27 AM 23.2472 -78.1522 341° North 450 518 36,000  Level Miami Center
Wed 04:11:00 AM 24.1961 -79.4779 341° North  Level FlightAware Approximate
Wed 04:11:27 AM 23.3575 -78.1964 340° North 438 504 36,000  Level Miami Center
Wed 04:12:00 AM 24.3106 -79.5210 341° North  Level FlightAware Approximate
Wed 04:12:27 AM 23.4700 -78.2475 337° Northwest 429 494 36,000  Level Miami Center
Wed 04:13:00 AM 24.4251 -79.5642 341° North  Level FlightAware Approximate
Wed 04:13:27 AM 23.5825 -78.2872 342° North 430 495 36,000  Level Miami Center
Wed 04:14:00 AM 24.5396 -79.6075 341° North  Level FlightAware Approximate
Wed 04:14:27 AM 23.6969 -78.3361 339° North 430 495 36,000  Level Miami Center
Wed 04:15:00 AM 24.6541 -79.6509 341° North  Level FlightAware Approximate
Wed 04:15:27 AM 23.8175 -78.3875 339° North 430 495 36,000  Level Miami Center
Wed 04:16:27 AM 23.9300 -78.4319 340° North 430 495 36,000  Level Miami Center
Wed 04:17:27 AM 24.0400 -78.4811 338° Northwest 430 495 36,000  Level Miami Center
Wed 04:18:27 AM 24.1503 -78.5350 336° Northwest 430 495 36,000  Level Miami Center
Wed 04:19:27 AM 24.2606 -78.5889 336° Northwest 430 495 36,000  Level Miami Center
Wed 04:20:27 AM 24.3725 -78.6428 336° Northwest 436 502 36,000  Level Miami Center
Wed 04:21:27 AM 24.4828 -78.6947 337° Northwest 436 502 36,000  Level Miami Center
Wed 04:22:27 AM 24.5950 -78.7467 337° Northwest 436 502 36,000  Level Miami Center
Wed 04:23:27 AM 24.7072 -78.8008 336° Northwest 441 507 36,000  Level Miami Center
Wed 04:24:27 AM 24.8214 -78.8578 336° Northwest 441 507 36,000  Level Miami Center
Wed 04:25:27 AM 24.9333 -78.9122 336° Northwest 441 507 36,000  Level Miami Center
Wed 04:26:27 AM 25.0497 -78.9622 339° North 441 507 36,000  Level Miami Center
Wed 04:27:27 AM 25.1639 -79.0147 337° Northwest 441 507 36,000  Level Miami Center
Wed 04:28:27 AM 25.2800 -79.0719 336° Northwest 441 507 36,000  Level Miami Center
Wed 04:29:27 AM 25.3919 -79.1269 336° Northwest 441 507 36,000  Level Miami Center
Wed 04:30:27 AM 25.5039 -79.1842 335° Northwest 441 507 36,000  Level Miami Center
Wed 04:31:27 AM 25.6181 -79.2394 336° Northwest 441 507 36,000  Level Miami Center
Wed 04:32:27 AM 25.7342 -79.2947 337° Northwest 441 507 36,000  Level Miami Center
Wed 04:33:27 AM 25.8314 -79.3453 335° Northwest 436 502 36,000  Level Miami Center
Wed 04:34:27 AM 25.9619 -79.4058 337° Northwest 443 510 36,000  Level Miami Center
Wed 04:35:27 AM 26.0803 -79.4592 338° Northwest 454 522 36,000  Level Miami Center
Wed 04:36:27 AM 26.1961 -79.5125 338° Northwest 454 522 36,000  Level Miami Center
Wed 04:37:27 AM 26.2956 -79.5564 338° Northwest 449 517 36,000  Level Miami Center
Wed 04:38:27 AM 26.4219 -79.6175 337° Northwest 444 511 36,000  Level Miami Center
Wed 04:39:27 AM 26.5233 -79.6639 338° Northwest 439 505 36,000  Level Miami Center
Wed 04:40:27 AM 26.6497 -79.7225 337° Northwest 434 499 36,000  Level Miami Center
Wed 04:41:27 AM 26.7511 -79.7692 338° Northwest 434 499 36,000  Level Miami Center
Wed 04:42:27 AM 26.8731 -79.8283 337° Northwest 434 499 36,000  Level Miami Center
Wed 04:43:27 AM 26.9869 -79.8800 338° Northwest 439 505 36,000  Level Miami Center
Wed 04:44:27 AM 27.0986 -79.9389 335° Northwest 434 499 36,000  Level Miami Center
Wed 04:45:27 AM 27.2100 -79.9908 337° Northwest 434 499 36,000  Level Miami Center
Wed 04:46:27 AM 27.3258 -80.0433 338° Northwest 439 505 36,000  Level Miami Center
Wed 04:47:27 AM 27.4375 -80.0978 337° Northwest 439 505 36,000  Level Miami Center
Wed 04:48:27 AM 27.5531 -80.1525 337° Northwest 439 505 36,000  Level Miami Center
Wed 04:49:27 AM 27.6708 -80.2075 338° Northwest 439 505 36,000  Level Miami Center
Wed 04:50:27 AM 27.7844 -80.2600 338° Northwest 439 505 36,000  Level Miami Center
Wed 04:51:27 AM 27.9000 -80.3153 337° Northwest 444 511 36,000  Level Miami Center
Wed 04:52:27 AM 28.0075 -80.3656 338° Northwest 451 519 36,000  Level Miami Center
Wed 04:53:27 AM 28.1228 -80.4208 337° Northwest 451 519 36,000  Level Miami Center
Wed 04:54:27 AM 28.2467 -80.4814 337° Northwest 451 519 36,000  Level Miami Center
Wed 04:57:39 AM 28.6000 -80.6511 337° Northwest 421 484 36,000  Level Jacksonville Center
Wed 04:58:39 AM 28.7114 -80.7078 336° Northwest 413 475 36,000  Level Jacksonville Center
Wed 04:59:39 AM 28.8250 -80.7622 337° Northwest 419 482 36,000  Level Jacksonville Center
Wed 05:00:39 AM 28.9344 -80.8144 337° Northwest 414 476 36,000  Level Jacksonville Center
Wed 05:01:39 AM 29.0461 -80.8736 335° Northwest 414 476 36,000  Level Jacksonville Center
Wed 05:02:39 AM 29.1556 -80.9286 336° Northwest 419 482 36,000  Level Jacksonville Center
Wed 05:03:39 AM 29.2650 -80.9883 335° Northwest 419 482 36,000  Level Jacksonville Center
Wed 05:04:39 AM 29.3744 -81.0506 334° Northwest 419 482 36,000 -250 Level Jacksonville Center
Wed 05:05:39 AM 29.4942 -81.1128 336° Northwest 419 482 35,500 -500 Descending Jacksonville Center
Wed 05:06:39 AM 29.6036 -81.1753 334° Northwest 419 482 35,000 -450 Descending Jacksonville Center
Wed 05:07:39 AM 29.7128 -81.2331 335° Northwest 425 489 34,600 -900 Descending Jacksonville Center
Wed 05:08:39 AM 29.8222 -81.2933 334° Northwest 425 489 33,200 -800 Descending Jacksonville Center
Wed 05:09:39 AM 29.9336 -81.3514 336° Northwest 436 502 33,000 -100 Descending Jacksonville Center
Wed 05:10:39 AM 30.0472 -81.4144 334° Northwest 443 510 33,000  Level Jacksonville Center
Wed 05:11:39 AM 30.1583 -81.4753 335° Northwest 438 504 33,000  Level Jacksonville Center
Wed 05:12:39 AM 30.2678 -81.5361 334° Northwest 433 498 33,000  Level Jacksonville Center
Wed 05:13:39 AM 30.3789 -81.5947 336° Northwest 433 498 33,000  Level Jacksonville Center
Wed 05:14:39 AM 30.4797 -81.6489 335° Northwest 433 498 33,000  Level Jacksonville Center
Wed 05:15:39 AM 30.5908 -81.7100 335° Northwest 433 498 33,000  Level Jacksonville Center
Wed 05:16:39 AM 30.6981 -81.7717 334° Northwest 428 493 33,000  Level Jacksonville Center
Wed 05:17:39 AM 30.8069 -81.8331 334° Northwest 428 493 33,000  Level Jacksonville Center
Wed 05:18:39 AM 30.9161 -81.8950 334° Northwest 428 493 33,000  Level Jacksonville Center
Wed 05:19:39 AM 31.0253 -81.9569 334° Northwest 428 493 33,000  Level Jacksonville Center
Wed 05:20:39 AM 31.1322 -82.0189 334° Northwest 428 493 33,000  Level Jacksonville Center
Wed 05:21:39 AM 31.2389 -82.0786 334° Northwest 428 493 33,000  Level Jacksonville Center
Wed 05:22:39 AM 31.3522 -82.1383 336° Northwest 433 498 33,000  Level Jacksonville Center
Wed 05:23:39 AM 31.4611 -82.2033 333° Northwest 428 493 33,000  Level Jacksonville Center
Wed 05:24:39 AM 31.5700 -82.2658 334° Northwest 428 493 33,000  Level Jacksonville Center
Wed 05:27:04 AM 31.8508 -82.4178 335° Northwest 436 502 33,000  Level Atlanta Center
Wed 05:28:04 AM 31.9603 -82.4892 331° Northwest 436 502 33,000  Level Atlanta Center
Wed 05:29:04 AM 32.0531 -82.5783 321° Northwest 436 502 33,000  Level Atlanta Center
Wed 05:30:04 AM 32.1439 -82.6750 318° Northwest 436 502 33,000  Level Atlanta Center
Wed 05:31:04 AM 32.2347 -82.7694 319° Northwest 436 502 33,000  Level Atlanta Center
Wed 05:32:04 AM 32.3256 -82.8664 318° Northwest 436 502 33,000  Level Atlanta Center
Wed 05:33:04 AM 32.4161 -82.9636 318° Northwest 436 502 33,000 -50 Level Atlanta Center
Wed 05:34:04 AM 32.5086 -83.0586 319° Northwest 436 502 32,900 -850 Descending Atlanta Center
Wed 05:35:04 AM 32.5992 -83.1561 318° Northwest 441 507 31,300 -1,650 Descending Atlanta Center
Wed 05:36:04 AM 32.6917 -83.2539 318° Northwest 446 513 29,600 -2,100 Descending Atlanta Center
Wed 05:37:04 AM 32.7819 -83.3519 318° Northwest 446 513 27,100 -2,750 Descending Atlanta Center
Wed 05:38:04 AM 32.8744 -83.4453 320° Northwest 441 507 24,100 -2,800 Descending Atlanta Center
Wed 05:39:04 AM 32.9644 -83.5411 318° Northwest 441 507 21,500 -2,600 Descending Atlanta Center
Wed 05:40:04 AM 33.0525 -83.6372 318° Northwest 435 501 18,900 -2,561 Descending Atlanta Center
Wed 05:41:48 AM 33.2000 -83.8000 317° Northwest 406 467 14,500 -1,823 Descending Atlanta TRACON
Wed 05:42:42 AM 33.2667 -83.8833 314° West 399 459 14,100 -395 Descending Atlanta TRACON
Wed 05:43:04 AM 33.2911 -83.9219 307° West 405 466 14,000 -73 Descending Atlanta Center
Wed 05:44:04 AM 33.3581 -84.0214 309° West 399 459 14,000 -150 Level Atlanta Center
Wed 05:45:04 AM 33.4228 -84.1208 308° West 384 442 13,700 -783 Descending Atlanta Center
Wed 05:45:36 AM 33.4667 -84.1500 331° Northwest 373 429 12,800 -923 Descending Atlanta TRACON
Wed 05:46:48 AM 33.5833 -84.2333 329° Northwest 368 423 12,100 -348 Descending Atlanta TRACON
Wed 05:47:54 AM 33.6667 -84.3000 326° Northwest 362 417 12,000 -105 Descending Atlanta TRACON
Wed 05:48:42 AM 33.7167 -84.3500 320° Northwest 321 369 11,900 -1,235 Descending Atlanta TRACON
Wed 05:49:36 AM 33.7333 -84.4500 281° West 303 349 9,900 -2,400 Descending Atlanta TRACON
Wed 05:50:42 AM 33.7333 -84.5500 270° West 288 331 7,100 -2,095 Descending Atlanta TRACON
Wed 05:51:42 AM 33.7333 -84.6500 270° West 272 313 5,500 -1,190 Descending Atlanta TRACON
Wed 05:52:48 AM 33.6833 -84.6833 209° Southwest 197 227 4,600 -700 Descending Atlanta TRACON
Wed 05:53:42 AM 33.6500 -84.6667 157° South 158 182 4,100 -474 Descending Atlanta TRACON
Wed 05:54:42 AM 33.6500 -84.6167 90° East 148 170 3,700 -400 Descending Atlanta TRACON

Login

Don't have an account? Register now (free) for customized features, flight alerts, and more!